TQQ1O KEYW-MHTG
Flight info
| Callsign | TQQ1O |
|---|---|
| Flight time | 2h 16m |
| Altitude | 32000 |
| Route | MAXIM UG765 CZM UB881 ANIKO/N0460F310 UB881 BTO/N0461F320 |
| Aircraft | B738/M-SDE2E3FGHIRWXY/LB1 |
Departure
| Time | 2026-05-04 13:07 |
|---|---|
| Airport | Key West International Airport (KEYW) |
Arrival
| Time | 2026-05-04 15:23 |
|---|---|
| Airport | Toncontín Airport (MHTG) |
| Time | Latitude | Longitude | Altitude | Speed | Heading |
|---|---|---|---|---|---|
| 2026-05-04 12:39 | 24.55476 | -81.75553 | 18 ft | 0 kts | 230° |
| 2026-05-04 12:43 | 24.55470 | -81.75561 | 18 ft | 0 kts | 230° |
| 2026-05-04 12:59 | 24.55483 | -81.75543 | 18 ft | 4 kts | 242° |
| 2026-05-04 12:59 | 24.55490 | -81.75517 | 18 ft | 3 kts | 269° |
| 2026-05-04 13:00 | 24.55490 | -81.75514 | 18 ft | 0 kts | 270° |
| 2026-05-04 13:02 | 24.55490 | -81.75516 | 9 ft | 1 kts | 270° |
| 2026-05-04 13:02 | 24.55491 | -81.75543 | 22 ft | 6 kts | 270° |
| 2026-05-04 13:02 | 24.55518 | -81.75593 | 19 ft | 7 kts | 321° |
| 2026-05-04 13:03 | 24.55529 | -81.75662 | 19 ft | 12 kts | 267° |
| 2026-05-04 13:03 | 24.55528 | -81.75775 | 19 ft | 18 kts | 269° |
| 2026-05-04 13:03 | 24.55527 | -81.75935 | 15 ft | 24 kts | 270° |
| 2026-05-04 13:03 | 24.55526 | -81.76069 | 12 ft | 17 kts | 269° |
| 2026-05-04 13:04 | 24.55523 | -81.76222 | 12 ft | 22 kts | 269° |
| 2026-05-04 13:04 | 24.55523 | -81.76393 | 11 ft | 23 kts | 270° |
| 2026-05-04 13:04 | 24.55522 | -81.76545 | 11 ft | 15 kts | 269° |
| 2026-05-04 13:04 | 24.55524 | -81.76624 | 12 ft | 10 kts | 286° |
| 2026-05-04 13:05 | 24.55576 | -81.76656 | 13 ft | 6 kts | 355° |
| 2026-05-04 13:05 | 24.55605 | -81.76641 | 13 ft | 5 kts | 49° |
| 2026-05-04 13:05 | 24.55605 | -81.76604 | 13 ft | 7 kts | 100° |
| 2026-05-04 13:05 | 24.55605 | -81.76580 | 13 ft | 0 kts | 88° |
| 2026-05-04 13:06 | 24.55605 | -81.76572 | 13 ft | 12 kts | 88° |
| 2026-05-04 13:06 | 24.55610 | -81.76194 | 11 ft | 86 kts | 90° |
| 2026-05-04 13:06 | 24.55618 | -81.75297 | 20 ft | 148 kts | 90° |
| 2026-05-04 13:06 | 24.55716 | -81.74025 | 137 ft | 184 kts | 81° |
| 2026-05-04 13:07 | 24.55662 | -81.72545 | 687 ft | 208 kts | 101° |
| 2026-05-04 13:07 | 24.55068 | -81.71072 | 1519 ft | 210 kts | 123° |
| 2026-05-04 13:07 | 24.54130 | -81.69923 | 2550 ft | 202 kts | 140° |
| 2026-05-04 13:07 | 24.52986 | -81.69107 | 3563 ft | 193 kts | 155° |
| 2026-05-04 13:08 | 24.51682 | -81.68664 | 4173 ft | 205 kts | 176° |
| 2026-05-04 13:08 | 24.50233 | -81.68746 | 4735 ft | 208 kts | 196° |
| 2026-05-04 13:08 | 24.48932 | -81.69336 | 5413 ft | 205 kts | 217° |
| 2026-05-04 13:08 | 24.47784 | -81.70365 | 5709 ft | 222 kts | 224° |
| 2026-05-04 13:09 | 24.46641 | -81.71555 | 6252 ft | 221 kts | 227° |
| 2026-05-04 13:09 | 24.45629 | -81.72784 | 6986 ft | 214 kts | 234° |
| 2026-05-04 13:09 | 24.44770 | -81.74096 | 7593 ft | 213 kts | 239° |
| 2026-05-04 13:09 | 24.43981 | -81.75495 | 8065 ft | 218 kts | 243° |
| 2026-05-04 13:10 | 24.43217 | -81.76944 | 8594 ft | 219 kts | 242° |
| 2026-05-04 13:10 | 24.42370 | -81.78434 | 8670 ft | 243 kts | 240° |
| 2026-05-04 13:10 | 24.41393 | -81.79996 | 8515 ft | 247 kts | 237° |
| 2026-05-04 13:10 | 24.40311 | -81.81467 | 8831 ft | 252 kts | 235° |
| 2026-05-04 13:11 | 24.39208 | -81.83024 | 9182 ft | 270 kts | 235° |
| 2026-05-04 13:11 | 24.38040 | -81.84673 | 9718 ft | 273 kts | 235° |
| 2026-05-04 13:11 | 24.36907 | -81.86254 | 10818 ft | 261 kts | 235° |
| 2026-05-04 13:11 | 24.35766 | -81.87903 | 11077 ft | 279 kts | 238° |
| 2026-05-04 13:12 | 24.34651 | -81.89622 | 11886 ft | 271 kts | 238° |
| 2026-05-04 13:12 | 24.33589 | -81.91258 | 13003 ft | 258 kts | 238° |
| 2026-05-04 13:12 | 24.32547 | -81.92844 | 13893 ft | 255 kts | 238° |
| 2026-05-04 13:12 | 24.31482 | -81.94447 | 14329 ft | 268 kts | 237° |
| 2026-05-04 13:13 | 24.30357 | -81.96139 | 14622 ft | 284 kts | 238° |
| 2026-05-04 13:13 | 24.29162 | -81.97972 | 14751 ft | 306 kts | 238° |
| 2026-05-04 13:13 | 24.27902 | -81.99915 | 15038 ft | 321 kts | 238° |
| 2026-05-04 13:13 | 24.26602 | -82.01958 | 15450 ft | 330 kts | 238° |
| 2026-05-04 13:14 | 24.25292 | -82.04066 | 15886 ft | 339 kts | 239° |
| 2026-05-04 13:14 | 24.23959 | -82.06263 | 16089 ft | 352 kts | 239° |
| 2026-05-04 13:14 | 24.22578 | -82.08496 | 16588 ft | 357 kts | 238° |
| 2026-05-04 13:14 | 24.21148 | -82.10755 | 16952 ft | 365 kts | 238° |
| 2026-05-04 13:15 | 24.19671 | -82.13040 | 17437 ft | 368 kts | 237° |
| 2026-05-04 13:15 | 24.18156 | -82.15305 | 18001 ft | 370 kts | 236° |
| 2026-05-04 13:15 | 24.16633 | -82.17536 | 18535 ft | 370 kts | 236° |
| 2026-05-04 13:15 | 24.15076 | -82.19794 | 19051 ft | 370 kts | 236° |
| 2026-05-04 13:16 | 24.13528 | -82.22033 | 19684 ft | 368 kts | 236° |
| 2026-05-04 13:16 | 24.11980 | -82.24286 | 20040 ft | 374 kts | 236° |
| 2026-05-04 13:16 | 24.10394 | -82.26606 | 20163 ft | 384 kts | 237° |
| 2026-05-04 13:16 | 24.08827 | -82.28969 | 20683 ft | 385 kts | 238° |
| 2026-05-04 13:17 | 24.07271 | -82.31372 | 21014 ft | 390 kts | 238° |
| 2026-05-04 13:17 | 24.05698 | -82.33809 | 21386 ft | 393 kts | 238° |
| 2026-05-04 13:17 | 24.04112 | -82.36253 | 21778 ft | 395 kts | 238° |
| 2026-05-04 13:17 | 24.02509 | -82.38705 | 22176 ft | 398 kts | 238° |
| 2026-05-04 13:18 | 24.00885 | -82.41175 | 22553 ft | 401 kts | 238° |
| 2026-05-04 13:18 | 23.99248 | -82.43655 | 22914 ft | 404 kts | 238° |
| 2026-05-04 13:18 | 23.97609 | -82.46133 | 23282 ft | 406 kts | 238° |
| 2026-05-04 13:18 | 23.95957 | -82.48626 | 23627 ft | 409 kts | 238° |
| 2026-05-04 13:19 | 23.94283 | -82.51149 | 23927 ft | 411 kts | 238° |
| 2026-05-04 13:19 | 23.92603 | -82.53679 | 24264 ft | 412 kts | 238° |
| 2026-05-04 13:19 | 23.90917 | -82.56218 | 24607 ft | 413 kts | 238° |
| 2026-05-04 13:19 | 23.89228 | -82.58759 | 24941 ft | 414 kts | 238° |
| 2026-05-04 13:20 | 23.87530 | -82.61313 | 25183 ft | 417 kts | 238° |
| 2026-05-04 13:20 | 23.85826 | -82.63877 | 25453 ft | 419 kts | 238° |
| 2026-05-04 13:20 | 23.84119 | -82.66442 | 25766 ft | 420 kts | 238° |
| 2026-05-04 13:20 | 23.82400 | -82.69025 | 26093 ft | 421 kts | 238° |
| 2026-05-04 13:21 | 23.80677 | -82.71611 | 26391 ft | 422 kts | 238° |
| 2026-05-04 13:21 | 23.78949 | -82.74205 | 26685 ft | 423 kts | 238° |
| 2026-05-04 13:21 | 23.77213 | -82.76809 | 26966 ft | 425 kts | 238° |
| 2026-05-04 13:21 | 23.75474 | -82.79417 | 27259 ft | 426 kts | 239° |
| 2026-05-04 13:22 | 23.73724 | -82.82040 | 27536 ft | 427 kts | 239° |
| 2026-05-04 13:22 | 23.71974 | -82.84660 | 27830 ft | 428 kts | 239° |
| 2026-05-04 13:22 | 23.70215 | -82.87293 | 28111 ft | 429 kts | 239° |
| 2026-05-04 13:22 | 23.68454 | -82.89927 | 28385 ft | 430 kts | 239° |
| 2026-05-04 13:23 | 23.66687 | -82.92571 | 28646 ft | 432 kts | 239° |
| 2026-05-04 13:23 | 23.64915 | -82.95220 | 28890 ft | 433 kts | 239° |
| 2026-05-04 13:23 | 23.63132 | -82.97883 | 29131 ft | 435 kts | 239° |
| 2026-05-04 13:23 | 23.61349 | -83.00545 | 29304 ft | 436 kts | 239° |
| 2026-05-04 13:24 | 23.59558 | -83.03218 | 29642 ft | 437 kts | 238° |
| 2026-05-04 13:24 | 23.57820 | -83.05811 | 29891 ft | 437 kts | 238° |
| 2026-05-04 13:24 | 23.56029 | -83.08482 | 30169 ft | 437 kts | 238° |
| 2026-05-04 13:25 | 23.52402 | -83.13770 | 30846 ft | 435 kts | 236° |
| 2026-05-04 13:25 | 23.50478 | -83.16303 | 31187 ft | 434 kts | 234° |
| 2026-05-04 13:25 | 23.48532 | -83.18787 | 31445 ft | 434 kts | 234° |
| 2026-05-04 13:25 | 23.46572 | -83.21265 | 31694 ft | 434 kts | 234° |
| 2026-05-04 13:26 | 23.44607 | -83.23750 | 32024 ft | 433 kts | 234° |
| 2026-05-04 13:26 | 23.42655 | -83.26227 | 32390 ft | 430 kts | 234° |
| 2026-05-04 13:26 | 23.40713 | -83.28703 | 32723 ft | 428 kts | 234° |
| 2026-05-04 13:26 | 23.38784 | -83.31168 | 33020 ft | 427 kts | 234° |
| 2026-05-04 13:27 | 23.36863 | -83.33629 | 33317 ft | 427 kts | 234° |
| 2026-05-04 13:27 | 23.34958 | -83.36071 | 33617 ft | 425 kts | 234° |
| 2026-05-04 13:27 | 23.33046 | -83.38521 | 33920 ft | 424 kts | 234° |
| 2026-05-04 13:27 | 23.31140 | -83.40962 | 34210 ft | 423 kts | 234° |
| 2026-05-04 13:28 | 23.29255 | -83.43375 | 34502 ft | 420 kts | 234° |
| 2026-05-04 13:28 | 23.27366 | -83.45792 | 34754 ft | 418 kts | 234° |
| 2026-05-04 13:28 | 23.25483 | -83.48199 | 35075 ft | 415 kts | 234° |
| 2026-05-04 13:28 | 23.23622 | -83.50577 | 35415 ft | 411 kts | 234° |
| 2026-05-04 13:29 | 23.21774 | -83.52937 | 35709 ft | 408 kts | 234° |
| 2026-05-04 13:29 | 23.19935 | -83.55284 | 36013 ft | 406 kts | 234° |
| 2026-05-04 13:29 | 23.18111 | -83.57612 | 36318 ft | 403 kts | 234° |
| 2026-05-04 13:29 | 23.16305 | -83.59915 | 36671 ft | 399 kts | 234° |
| 2026-05-04 13:30 | 23.14516 | -83.62196 | 36997 ft | 395 kts | 234° |
| 2026-05-04 13:30 | 23.12724 | -83.64481 | 37000 ft | 398 kts | 234° |
| 2026-05-04 13:30 | 23.09131 | -83.69063 | 37033 ft | 398 kts | 234° |
| 2026-05-04 13:31 | 23.05556 | -83.73610 | 37025 ft | 394 kts | 234° |
| 2026-05-04 13:31 | 23.02007 | -83.78122 | 37030 ft | 391 kts | 234° |
| 2026-05-04 13:32 | 22.98478 | -83.82605 | 36997 ft | 390 kts | 234° |
| 2026-05-04 13:32 | 22.94938 | -83.87101 | 37021 ft | 395 kts | 234° |
| 2026-05-04 13:33 | 22.91337 | -83.91671 | 37047 ft | 400 kts | 234° |
| 2026-05-04 13:33 | 22.87749 | -83.96217 | 37040 ft | 404 kts | 234° |
| 2026-05-04 13:34 | 22.84084 | -84.00855 | 37030 ft | 406 kts | 234° |
| 2026-05-04 13:34 | 22.80417 | -84.05489 | 37017 ft | 401 kts | 234° |
| 2026-05-04 13:35 | 22.75035 | -84.12289 | 37034 ft | 395 kts | 234° |
| 2026-05-04 13:36 | 22.71501 | -84.16833 | 37027 ft | 394 kts | 236° |
| 2026-05-04 13:36 | 22.68032 | -84.21396 | 37031 ft | 394 kts | 236° |
| 2026-05-04 13:37 | 22.64563 | -84.25928 | 37028 ft | 395 kts | 235° |
| 2026-05-04 13:37 | 22.61029 | -84.30493 | 37044 ft | 397 kts | 235° |
| 2026-05-04 13:38 | 22.57465 | -84.35083 | 37035 ft | 400 kts | 235° |
| 2026-05-04 13:38 | 22.53874 | -84.39707 | 37032 ft | 402 kts | 235° |
| 2026-05-04 13:39 | 22.50267 | -84.44351 | 37030 ft | 404 kts | 235° |
| 2026-05-04 13:39 | 22.46645 | -84.49011 | 37028 ft | 405 kts | 235° |
| 2026-05-04 13:40 | 22.43625 | -84.52892 | 37033 ft | 406 kts | 235° |
| 2026-05-04 13:40 | 22.39992 | -84.57558 | 37029 ft | 406 kts | 235° |
| 2026-05-04 13:41 | 22.36360 | -84.62219 | 36994 ft | 405 kts | 234° |
| 2026-05-04 13:41 | 22.32745 | -84.66854 | 37020 ft | 403 kts | 234° |
| 2026-05-04 13:42 | 22.27355 | -84.73758 | 37030 ft | 402 kts | 235° |
| 2026-05-04 13:42 | 22.23750 | -84.78371 | 37030 ft | 402 kts | 235° |
| 2026-05-04 13:43 | 22.20141 | -84.82985 | 37031 ft | 402 kts | 235° |
| 2026-05-04 13:43 | 22.16536 | -84.87589 | 37030 ft | 402 kts | 235° |
| 2026-05-04 13:44 | 22.12925 | -84.92198 | 37031 ft | 402 kts | 235° |
| 2026-05-04 13:44 | 22.09309 | -84.96809 | 37030 ft | 403 kts | 234° |
| 2026-05-04 13:45 | 22.05693 | -85.01417 | 37031 ft | 403 kts | 234° |
| 2026-05-04 13:45 | 22.02069 | -85.06031 | 37023 ft | 403 kts | 234° |
| 2026-05-04 13:46 | 21.98440 | -85.10646 | 37032 ft | 404 kts | 234° |
| 2026-05-04 13:46 | 21.94837 | -85.15306 | 37032 ft | 405 kts | 235° |
| 2026-05-04 13:47 | 21.91235 | -85.19987 | 37031 ft | 407 kts | 235° |
| 2026-05-04 13:47 | 21.87603 | -85.24678 | 37031 ft | 408 kts | 234° |
| 2026-05-04 13:48 | 21.83963 | -85.29360 | 37030 ft | 409 kts | 234° |
| 2026-05-04 13:48 | 21.80310 | -85.34057 | 37031 ft | 409 kts | 234° |
| 2026-05-04 13:49 | 21.76655 | -85.38754 | 37029 ft | 409 kts | 234° |
| 2026-05-04 13:49 | 21.73005 | -85.43442 | 37018 ft | 409 kts | 234° |
| 2026-05-04 13:50 | 21.69386 | -85.48086 | 37024 ft | 409 kts | 234° |
| 2026-05-04 13:50 | 21.65733 | -85.52772 | 37032 ft | 408 kts | 234° |
| 2026-05-04 13:51 | 21.62079 | -85.57453 | 37029 ft | 409 kts | 234° |
| 2026-05-04 13:51 | 21.58427 | -85.62130 | 37034 ft | 409 kts | 234° |
| 2026-05-04 13:52 | 21.52940 | -85.69148 | 37033 ft | 409 kts | 234° |
| 2026-05-04 13:53 | 21.49281 | -85.73821 | 37031 ft | 409 kts | 234° |
| 2026-05-04 13:53 | 21.45504 | -85.78401 | 37035 ft | 410 kts | 232° |
| 2026-05-04 13:54 | 21.39795 | -85.85200 | 37035 ft | 410 kts | 233° |
| 2026-05-04 13:55 | 21.34094 | -85.92046 | 37031 ft | 410 kts | 233° |
| 2026-05-04 13:55 | 21.28396 | -85.98886 | 37030 ft | 410 kts | 233° |
| 2026-05-04 13:56 | 21.24592 | -86.03447 | 37034 ft | 410 kts | 233° |
| 2026-05-04 13:57 | 21.18907 | -86.10258 | 37032 ft | 411 kts | 233° |
| 2026-05-04 13:58 | 21.11287 | -86.19368 | 37029 ft | 410 kts | 233° |
| 2026-05-04 13:58 | 21.05577 | -86.26189 | 37013 ft | 410 kts | 232° |
| 2026-05-04 13:59 | 21.01740 | -86.30770 | 37029 ft | 410 kts | 232° |
| 2026-05-04 14:00 | 20.96049 | -86.37556 | 37022 ft | 410 kts | 232° |
| 2026-05-04 14:00 | 20.90326 | -86.44372 | 37028 ft | 411 kts | 232° |
| 2026-05-04 14:01 | 20.86515 | -86.48908 | 37022 ft | 412 kts | 232° |
| 2026-05-04 14:02 | 20.80772 | -86.55737 | 37032 ft | 412 kts | 232° |
| 2026-05-04 14:02 | 20.76938 | -86.60295 | 36997 ft | 412 kts | 232° |
| 2026-05-04 14:03 | 20.73100 | -86.64833 | 37015 ft | 412 kts | 232° |
| 2026-05-04 14:03 | 20.69249 | -86.69370 | 37035 ft | 412 kts | 232° |
| 2026-05-04 14:04 | 20.63470 | -86.76177 | 37035 ft | 413 kts | 232° |
| 2026-05-04 14:04 | 20.59604 | -86.80729 | 37039 ft | 413 kts | 232° |
| 2026-05-04 14:05 | 20.53816 | -86.87528 | 37039 ft | 414 kts | 230° |
| 2026-05-04 14:05 | 20.51532 | -86.89457 | 37027 ft | 424 kts | 213° |
| 2026-05-04 14:06 | 20.48801 | -86.90709 | 37035 ft | 433 kts | 202° |
| 2026-05-04 14:06 | 20.45805 | -86.91293 | 37034 ft | 445 kts | 188° |
| 2026-05-04 14:06 | 20.42694 | -86.91303 | 37035 ft | 448 kts | 185° |
| 2026-05-04 14:07 | 20.36452 | -86.91137 | 37036 ft | 449 kts | 185° |
| 2026-05-04 14:07 | 20.30207 | -86.91007 | 37027 ft | 448 kts | 186° |
| 2026-05-04 14:08 | 20.23962 | -86.90938 | 37027 ft | 448 kts | 186° |
| 2026-05-04 14:08 | 20.17743 | -86.90883 | 37030 ft | 448 kts | 186° |
| 2026-05-04 14:09 | 20.08433 | -86.90797 | 37013 ft | 448 kts | 186° |
| 2026-05-04 14:10 | 19.99105 | -86.90810 | 37029 ft | 447 kts | 186° |
| 2026-05-04 14:10 | 19.92894 | -86.90836 | 37032 ft | 447 kts | 186° |
| 2026-05-04 14:11 | 19.86674 | -86.90854 | 37029 ft | 446 kts | 186° |
| 2026-05-04 14:11 | 19.77358 | -86.90876 | 37029 ft | 446 kts | 186° |
| 2026-05-04 14:12 | 19.71150 | -86.90890 | 37025 ft | 446 kts | 186° |
| 2026-05-04 14:13 | 19.61840 | -86.90888 | 37023 ft | 446 kts | 185° |
| 2026-05-04 14:13 | 19.55629 | -86.90851 | 37027 ft | 446 kts | 185° |
| 2026-05-04 14:14 | 19.49425 | -86.90816 | 37030 ft | 446 kts | 185° |
| 2026-05-04 14:14 | 19.40257 | -86.90770 | 37021 ft | 446 kts | 185° |
| 2026-05-04 14:15 | 19.27852 | -86.90711 | 37028 ft | 445 kts | 185° |
| 2026-05-04 14:16 | 19.18591 | -86.90666 | 37024 ft | 445 kts | 185° |
| 2026-05-04 14:17 | 19.09297 | -86.90621 | 37007 ft | 445 kts | 185° |
| 2026-05-04 14:18 | 19.00019 | -86.90552 | 37023 ft | 445 kts | 185° |
| 2026-05-04 14:19 | 18.87640 | -86.90380 | 37022 ft | 446 kts | 185° |
| 2026-05-04 14:19 | 18.81430 | -86.90299 | 37023 ft | 447 kts | 185° |
| 2026-05-04 14:20 | 18.75212 | -86.90219 | 37010 ft | 447 kts | 185° |
| 2026-05-04 14:20 | 18.68982 | -86.90139 | 37022 ft | 448 kts | 184° |
| 2026-05-04 14:21 | 18.59625 | -86.90019 | 37023 ft | 449 kts | 184° |
| 2026-05-04 14:21 | 18.53391 | -86.89940 | 37023 ft | 449 kts | 184° |
| 2026-05-04 14:22 | 18.47135 | -86.89859 | 37021 ft | 449 kts | 184° |
| 2026-05-04 14:22 | 18.40885 | -86.89780 | 37023 ft | 449 kts | 184° |
| 2026-05-04 14:23 | 18.31497 | -86.89668 | 37023 ft | 449 kts | 183° |
| 2026-05-04 14:24 | 18.25314 | -86.89595 | 37021 ft | 449 kts | 184° |
| 2026-05-04 14:24 | 18.19058 | -86.89520 | 37021 ft | 449 kts | 184° |
| 2026-05-04 14:25 | 18.12835 | -86.89446 | 37019 ft | 449 kts | 184° |
| 2026-05-04 14:25 | 18.03467 | -86.89334 | 37021 ft | 448 kts | 184° |
| 2026-05-04 14:26 | 17.98244 | -86.89272 | 37021 ft | 448 kts | 184° |
| 2026-05-04 14:26 | 17.92008 | -86.89198 | 37022 ft | 448 kts | 183° |
| 2026-05-04 14:27 | 17.85770 | -86.89104 | 37019 ft | 448 kts | 183° |
| 2026-05-04 14:27 | 17.79581 | -86.89001 | 37019 ft | 448 kts | 183° |
| 2026-05-04 14:28 | 17.73350 | -86.88898 | 37020 ft | 448 kts | 183° |
| 2026-05-04 14:28 | 17.67126 | -86.88798 | 37015 ft | 447 kts | 183° |
| 2026-05-04 14:29 | 17.54682 | -86.88598 | 37019 ft | 447 kts | 183° |
| 2026-05-04 14:30 | 17.48459 | -86.88499 | 37022 ft | 447 kts | 183° |
| 2026-05-04 14:31 | 17.39123 | -86.88350 | 37022 ft | 447 kts | 183° |
| 2026-05-04 14:32 | 17.26699 | -86.88151 | 37015 ft | 446 kts | 183° |
| 2026-05-04 14:32 | 17.20501 | -86.88052 | 37018 ft | 445 kts | 183° |
| 2026-05-04 14:33 | 17.14311 | -86.87953 | 37017 ft | 444 kts | 183° |
| 2026-05-04 14:33 | 17.08142 | -86.87855 | 37018 ft | 443 kts | 183° |
| 2026-05-04 14:34 | 17.01987 | -86.87757 | 37002 ft | 442 kts | 183° |
| 2026-05-04 14:34 | 16.95827 | -86.87659 | 37013 ft | 441 kts | 183° |
| 2026-05-04 14:35 | 16.89693 | -86.87561 | 37010 ft | 441 kts | 183° |
| 2026-05-04 14:35 | 16.83559 | -86.87463 | 37009 ft | 441 kts | 183° |
| 2026-05-04 14:36 | 16.77425 | -86.87364 | 37009 ft | 441 kts | 183° |
| 2026-05-04 14:36 | 16.71289 | -86.87266 | 37008 ft | 441 kts | 183° |
| 2026-05-04 14:37 | 16.65161 | -86.87167 | 37000 ft | 441 kts | 182° |
| 2026-05-04 14:37 | 16.59012 | -86.87069 | 37004 ft | 442 kts | 182° |
| 2026-05-04 14:38 | 16.52923 | -86.86971 | 37003 ft | 442 kts | 182° |
| 2026-05-04 14:38 | 16.46772 | -86.86872 | 37004 ft | 443 kts | 182° |
| 2026-05-04 14:39 | 16.40622 | -86.86774 | 37003 ft | 443 kts | 182° |
| 2026-05-04 14:39 | 16.34407 | -86.86674 | 37002 ft | 444 kts | 182° |
| 2026-05-04 14:40 | 16.25184 | -86.86526 | 37000 ft | 444 kts | 182° |
| 2026-05-04 14:40 | 16.19002 | -86.86428 | 37004 ft | 444 kts | 182° |
| 2026-05-04 14:41 | 16.12824 | -86.86329 | 36995 ft | 445 kts | 182° |
| 2026-05-04 14:42 | 16.00446 | -86.86313 | 36988 ft | 444 kts | 183° |
| 2026-05-04 14:42 | 15.94258 | -86.86344 | 36981 ft | 445 kts | 182° |
| 2026-05-04 14:43 | 15.88072 | -86.86363 | 36994 ft | 444 kts | 182° |
| 2026-05-04 14:43 | 15.81887 | -86.86378 | 36993 ft | 445 kts | 182° |
| 2026-05-04 14:44 | 15.75696 | -86.86395 | 36995 ft | 445 kts | 182° |
| 2026-05-04 14:44 | 15.72608 | -86.86553 | 36808 ft | 446 kts | 190° |
| 2026-05-04 14:44 | 15.69547 | -86.87161 | 36280 ft | 448 kts | 194° |
| 2026-05-04 14:45 | 15.66510 | -86.87832 | 35616 ft | 450 kts | 194° |
| 2026-05-04 14:45 | 15.63440 | -86.88516 | 34940 ft | 452 kts | 194° |
| 2026-05-04 14:45 | 15.60340 | -86.89200 | 34179 ft | 458 kts | 193° |
| 2026-05-04 14:45 | 15.57211 | -86.89881 | 33350 ft | 462 kts | 193° |
| 2026-05-04 14:46 | 15.54050 | -86.90559 | 32668 ft | 464 kts | 192° |
| 2026-05-04 14:46 | 15.50933 | -86.91221 | 32124 ft | 462 kts | 192° |
| 2026-05-04 14:46 | 15.47791 | -86.91886 | 31580 ft | 460 kts | 192° |
| 2026-05-04 14:46 | 15.44622 | -86.92554 | 31040 ft | 458 kts | 192° |
| 2026-05-04 14:47 | 15.41539 | -86.93204 | 30483 ft | 457 kts | 192° |
| 2026-05-04 14:47 | 15.38426 | -86.93861 | 29903 ft | 456 kts | 192° |
| 2026-05-04 14:47 | 15.35316 | -86.94517 | 29262 ft | 454 kts | 192° |
| 2026-05-04 14:47 | 15.32229 | -86.95168 | 28691 ft | 452 kts | 192° |
| 2026-05-04 14:48 | 15.29161 | -86.95816 | 28112 ft | 449 kts | 192° |
| 2026-05-04 14:48 | 15.26064 | -86.96469 | 27532 ft | 447 kts | 192° |
| 2026-05-04 14:48 | 15.23117 | -86.97091 | 26995 ft | 445 kts | 192° |
| 2026-05-04 14:48 | 15.20111 | -86.97724 | 26436 ft | 444 kts | 191° |
| 2026-05-04 14:49 | 15.17091 | -86.98361 | 25897 ft | 442 kts | 191° |
| 2026-05-04 14:49 | 15.14081 | -86.98995 | 25320 ft | 441 kts | 191° |
| 2026-05-04 14:49 | 15.11074 | -86.99629 | 24764 ft | 440 kts | 191° |
| 2026-05-04 14:49 | 15.08076 | -87.00260 | 24190 ft | 440 kts | 191° |
| 2026-05-04 14:50 | 15.05104 | -87.00886 | 23646 ft | 439 kts | 191° |
| 2026-05-04 14:50 | 15.02138 | -87.01510 | 22996 ft | 438 kts | 191° |
| 2026-05-04 14:50 | 14.99160 | -87.02137 | 22417 ft | 436 kts | 191° |
| 2026-05-04 14:50 | 14.96193 | -87.02761 | 21850 ft | 433 kts | 191° |
| 2026-05-04 14:51 | 14.93250 | -87.03381 | 21291 ft | 430 kts | 190° |
| 2026-05-04 14:51 | 14.90334 | -87.03994 | 20770 ft | 427 kts | 190° |
| 2026-05-04 14:51 | 14.87431 | -87.04604 | 20212 ft | 424 kts | 190° |
| 2026-05-04 14:51 | 14.84538 | -87.05212 | 19659 ft | 423 kts | 190° |
| 2026-05-04 14:52 | 14.81659 | -87.05817 | 18997 ft | 424 kts | 189° |
| 2026-05-04 14:52 | 14.78783 | -87.06421 | 18409 ft | 419 kts | 189° |
| 2026-05-04 14:52 | 14.75968 | -87.07012 | 17791 ft | 408 kts | 189° |
| 2026-05-04 14:52 | 14.73228 | -87.07589 | 17238 ft | 397 kts | 189° |
| 2026-05-04 14:53 | 14.70562 | -87.08149 | 16716 ft | 385 kts | 189° |
| 2026-05-04 14:53 | 14.67967 | -87.08694 | 16226 ft | 374 kts | 189° |
| 2026-05-04 14:53 | 14.65453 | -87.09222 | 15743 ft | 364 kts | 189° |
| 2026-05-04 14:53 | 14.62999 | -87.09736 | 15271 ft | 356 kts | 189° |
| 2026-05-04 14:54 | 14.60572 | -87.10244 | 14844 ft | 356 kts | 189° |
| 2026-05-04 14:54 | 14.58155 | -87.10749 | 14374 ft | 352 kts | 189° |
| 2026-05-04 14:54 | 14.55772 | -87.11249 | 13908 ft | 347 kts | 189° |
| 2026-05-04 14:54 | 14.53452 | -87.11735 | 13396 ft | 342 kts | 189° |
| 2026-05-04 14:55 | 14.51115 | -87.12224 | 12919 ft | 336 kts | 189° |
| 2026-05-04 14:55 | 14.48872 | -87.12694 | 12467 ft | 331 kts | 189° |
| 2026-05-04 14:55 | 14.46634 | -87.13163 | 12034 ft | 326 kts | 189° |
| 2026-05-04 14:55 | 14.44424 | -87.13625 | 11601 ft | 322 kts | 189° |
| 2026-05-04 14:56 | 14.42239 | -87.14082 | 11170 ft | 319 kts | 189° |
| 2026-05-04 14:56 | 14.40078 | -87.14534 | 10738 ft | 316 kts | 189° |
| 2026-05-04 14:56 | 14.37932 | -87.14983 | 10455 ft | 309 kts | 190° |
| 2026-05-04 14:56 | 14.35856 | -87.15418 | 10282 ft | 302 kts | 189° |
| 2026-05-04 14:57 | 14.33820 | -87.15843 | 10166 ft | 295 kts | 189° |
| 2026-05-04 14:57 | 14.31833 | -87.16259 | 10021 ft | 287 kts | 189° |
| 2026-05-04 14:57 | 14.29885 | -87.16668 | 9709 ft | 287 kts | 189° |
| 2026-05-04 14:57 | 14.27950 | -87.17079 | 9398 ft | 285 kts | 184° |
| 2026-05-04 14:58 | 14.26059 | -87.16800 | 9205 ft | 273 kts | 150° |
| 2026-05-04 14:58 | 14.24715 | -87.15540 | 9125 ft | 255 kts | 115° |
| 2026-05-04 14:58 | 14.24153 | -87.13854 | 9086 ft | 250 kts | 97° |
| 2026-05-04 14:58 | 14.24357 | -87.12028 | 8278 ft | 272 kts | 63° |
| 2026-05-04 14:59 | 14.25478 | -87.10677 | 7878 ft | 275 kts | 30° |
| 2026-05-04 14:59 | 14.27224 | -87.10239 | 8220 ft | 252 kts | 355° |
| 2026-05-04 14:59 | 14.29811 | -87.12506 | 8779 ft | 281 kts | 294° |
| 2026-05-04 15:00 | 14.30560 | -87.14386 | 8785 ft | 284 kts | 302° |
| 2026-05-04 15:00 | 14.31907 | -87.15736 | 8867 ft | 269 kts | 338° |
| 2026-05-04 15:00 | 14.33667 | -87.16032 | 9175 ft | 257 kts | 13° |
| 2026-05-04 15:01 | 14.36159 | -87.13580 | 9925 ft | 266 kts | 78° |
| 2026-05-04 15:01 | 14.36056 | -87.11684 | 10133 ft | 269 kts | 104° |
| 2026-05-04 15:01 | 14.35621 | -87.09801 | 10111 ft | 271 kts | 88° |
| 2026-05-04 15:01 | 14.36141 | -87.08005 | 10276 ft | 262 kts | 54° |
| 2026-05-04 15:02 | 14.37572 | -87.06868 | 10576 ft | 266 kts | 20° |
| 2026-05-04 15:02 | 14.39437 | -87.06773 | 10991 ft | 280 kts | 347° |
| 2026-05-04 15:02 | 14.41154 | -87.07759 | 11328 ft | 292 kts | 316° |
| 2026-05-04 15:02 | 14.42256 | -87.09524 | 11553 ft | 296 kts | 297° |
| 2026-05-04 15:03 | 14.43444 | -87.11237 | 11582 ft | 293 kts | 322° |
| 2026-05-04 15:03 | 14.44965 | -87.12631 | 11374 ft | 296 kts | 314° |
| 2026-05-04 15:03 | 14.46032 | -87.14452 | 11062 ft | 300 kts | 288° |
| 2026-05-04 15:03 | 14.46252 | -87.16592 | 10642 ft | 305 kts | 262° |
| 2026-05-04 15:04 | 14.45569 | -87.18650 | 10265 ft | 307 kts | 237° |
| 2026-05-04 15:04 | 14.44098 | -87.20200 | 10079 ft | 298 kts | 210° |
| 2026-05-04 15:04 | 14.42208 | -87.20893 | 10045 ft | 285 kts | 181° |
| 2026-05-04 15:04 | 14.40330 | -87.20515 | 9989 ft | 272 kts | 147° |
| 2026-05-04 15:05 | 14.39055 | -87.19228 | 9919 ft | 255 kts | 114° |
| 2026-05-04 15:05 | 14.38461 | -87.17562 | 9885 ft | 243 kts | 105° |
| 2026-05-04 15:05 | 14.37944 | -87.15919 | 9773 ft | 236 kts | 106° |
| 2026-05-04 15:05 | 14.37446 | -87.14331 | 9535 ft | 235 kts | 106° |
| 2026-05-04 15:06 | 14.36945 | -87.12735 | 9319 ft | 233 kts | 105° |
| 2026-05-04 15:06 | 14.36449 | -87.11151 | 9102 ft | 232 kts | 105° |
| 2026-05-04 15:06 | 14.36121 | -87.09536 | 8854 ft | 230 kts | 88° |
| 2026-05-04 15:07 | 14.35083 | -87.06555 | 8313 ft | 238 kts | 140° |
| 2026-05-04 15:07 | 14.33574 | -87.05870 | 8081 ft | 242 kts | 172° |
| 2026-05-04 15:07 | 14.31912 | -87.06091 | 7824 ft | 245 kts | 204° |
| 2026-05-04 15:07 | 14.30591 | -87.07167 | 7582 ft | 245 kts | 237° |
| 2026-05-04 15:08 | 14.29818 | -87.08747 | 7269 ft | 252 kts | 249° |
| 2026-05-04 15:08 | 14.29144 | -87.10426 | 7145 ft | 255 kts | 249° |
| 2026-05-04 15:08 | 14.28574 | -87.12154 | 7123 ft | 257 kts | 253° |
| 2026-05-04 15:08 | 14.28010 | -87.13922 | 7083 ft | 261 kts | 252° |
| 2026-05-04 15:09 | 14.27278 | -87.15593 | 7054 ft | 259 kts | 231° |
| 2026-05-04 15:09 | 14.25832 | -87.16647 | 7097 ft | 258 kts | 194° |
| 2026-05-04 15:09 | 14.24056 | -87.16646 | 7090 ft | 259 kts | 158° |
| 2026-05-04 15:10 | 14.21634 | -87.14196 | 7076 ft | 252 kts | 135° |
| 2026-05-04 15:10 | 14.20081 | -87.13418 | 7100 ft | 253 kts | 173° |
| 2026-05-04 15:10 | 14.17036 | -87.15055 | 7082 ft | 269 kts | 244° |
| 2026-05-04 15:11 | 14.16718 | -87.16878 | 7111 ft | 259 kts | 280° |
| 2026-05-04 15:11 | 14.17256 | -87.18651 | 6962 ft | 259 kts | 298° |
| 2026-05-04 15:11 | 14.17921 | -87.19684 | 6430 ft | 271 kts | 319° |
| 2026-05-04 15:11 | 14.19575 | -87.20567 | 6075 ft | 266 kts | 353° |
| 2026-05-04 15:12 | 14.21279 | -87.20450 | 6526 ft | 233 kts | 19° |
| 2026-05-04 15:12 | 14.22654 | -87.19634 | 6508 ft | 230 kts | 47° |
| 2026-05-04 15:12 | 14.23555 | -87.17659 | 6673 ft | 241 kts | 75° |
| 2026-05-04 15:12 | 14.23821 | -87.16513 | 7105 ft | 249 kts | 76° |
| 2026-05-04 15:13 | 14.24134 | -87.14747 | 7646 ft | 253 kts | 83° |
| 2026-05-04 15:13 | 14.24590 | -87.13009 | 7503 ft | 250 kts | 53° |
| 2026-05-04 15:13 | 14.25908 | -87.11947 | 7835 ft | 244 kts | 18° |
| 2026-05-04 15:13 | 14.27623 | -87.11933 | 8221 ft | 259 kts | 344° |
| 2026-05-04 15:14 | 14.29133 | -87.12980 | 8505 ft | 271 kts | 310° |
| 2026-05-04 15:14 | 14.30027 | -87.14707 | 8677 ft | 275 kts | 299° |
| 2026-05-04 15:14 | 14.31230 | -87.16200 | 8704 ft | 272 kts | 322° |
| 2026-05-04 15:14 | 14.32497 | -87.17680 | 8681 ft | 283 kts | 298° |
| 2026-05-04 15:15 | 14.32942 | -87.19657 | 8686 ft | 288 kts | 270° |
| 2026-05-04 15:15 | 14.32553 | -87.21676 | 8689 ft | 290 kts | 245° |
| 2026-05-04 15:15 | 14.31362 | -87.23317 | 8671 ft | 284 kts | 218° |
| 2026-05-04 15:16 | 14.28012 | -87.25051 | 8646 ft | 261 kts | 201° |
| 2026-05-04 15:16 | 14.26353 | -87.25769 | 8617 ft | 250 kts | 201° |
| 2026-05-04 15:16 | 14.23316 | -87.27109 | 8582 ft | 235 kts | 201° |
| 2026-05-04 15:17 | 14.21899 | -87.27887 | 8449 ft | 231 kts | 220° |
| 2026-05-04 15:17 | 14.19591 | -87.30181 | 8077 ft | 234 kts | 222° |
| 2026-05-04 15:17 | 14.18454 | -87.31275 | 7903 ft | 228 kts | 223° |
| 2026-05-04 15:18 | 14.17320 | -87.32360 | 7628 ft | 225 kts | 222° |
| 2026-05-04 15:18 | 14.16087 | -87.33315 | 7404 ft | 220 kts | 207° |
| 2026-05-04 15:18 | 14.14680 | -87.33823 | 7192 ft | 210 kts | 186° |
| 2026-05-04 15:19 | 14.12024 | -87.33441 | 6781 ft | 182 kts | 150° |
| 2026-05-04 15:19 | 14.10891 | -87.32857 | 6522 ft | 183 kts | 150° |
| 2026-05-04 15:19 | 14.08741 | -87.31716 | 5984 ft | 166 kts | 139° |
| 2026-05-04 15:20 | 14.07948 | -87.30909 | 5725 ft | 156 kts | 124° |
| 2026-05-04 15:20 | 14.07386 | -87.30011 | 5527 ft | 148 kts | 117° |
| 2026-05-04 15:20 | 14.06826 | -87.29120 | 5309 ft | 146 kts | 119° |
| 2026-05-04 15:20 | 14.06301 | -87.28249 | 5095 ft | 141 kts | 119° |
| 2026-05-04 15:21 | 14.05727 | -87.27439 | 4845 ft | 140 kts | 128° |
| 2026-05-04 15:21 | 14.05050 | -87.26721 | 4574 ft | 142 kts | 130° |
| 2026-05-04 15:21 | 14.04117 | -87.25034 | 4083 ft | 145 kts | 100° |
| 2026-05-04 15:22 | 14.04094 | -87.24004 | 4012 ft | 141 kts | 72° |
| 2026-05-04 15:22 | 14.04471 | -87.23098 | 3835 ft | 137 kts | 61° |
| 2026-05-04 15:22 | 14.05735 | -87.21860 | 3312 ft | 125 kts | 16° |
| 2026-05-04 15:23 | 14.06524 | -87.21576 | 3261 ft | 115 kts | 21° |
| 2026-05-04 15:23 | 14.06852 | -87.21460 | 3253 ft | 14 kts | 344° |
| 2026-05-04 15:23 | 14.06887 | -87.21509 | 3253 ft | 0 kts | 278° |
| 2026-05-04 15:24 | 14.06880 | -87.21524 | 3252 ft | 6 kts | 237° |
| 2026-05-04 15:26 | 14.06697 | -87.21594 | 3258 ft | 11 kts | 199° |
| 2026-05-04 15:26 | 14.06607 | -87.21625 | 3260 ft | 17 kts | 199° |
| 2026-05-04 15:26 | 14.06500 | -87.21663 | 3261 ft | 15 kts | 199° |